createdAt,value
2022-12-23T00:01:37.726Z,6.41
2022-12-23T00:04:05.269Z,6.43
2022-12-23T00:06:32.505Z,6.43
2022-12-23T00:09:00.488Z,6.42
2022-12-23T00:11:28.788Z,6.43
2022-12-23T00:14:20.969Z,6.42
2022-12-23T00:16:49.307Z,6.44
2022-12-23T00:19:16.725Z,6.44
2022-12-23T00:21:43.987Z,6.49
2022-12-23T00:24:12.316Z,6.48
2022-12-23T00:26:39.499Z,6.42
2022-12-23T00:29:06.736Z,6.32
2022-12-23T00:31:34.026Z,6.38
2022-12-23T00:34:01.287Z,6.39
2022-12-23T00:36:29.977Z,6.45
2022-12-23T00:39:17.305Z,6.52
2022-12-23T00:42:02.952Z,6.50
2022-12-23T00:44:30.257Z,6.50
2022-12-23T00:46:57.562Z,6.49
2022-12-23T00:49:43.315Z,6.52
2022-12-23T00:52:13.519Z,6.48
2022-12-23T00:54:40.841Z,6.55
2022-12-23T00:57:08.106Z,6.49
2022-12-23T00:59:35.531Z,6.45
2022-12-23T01:02:21.464Z,6.32
2022-12-23T01:05:07.815Z,6.24
2022-12-23T01:07:35.047Z,6.25
2022-12-23T01:10:02.263Z,6.24
2022-12-23T01:12:29.543Z,6.24
2022-12-23T01:14:56.716Z,6.20
2022-12-23T01:17:24.178Z,6.21
2022-12-23T01:19:51.569Z,6.15
2022-12-23T01:22:18.761Z,6.20
2022-12-23T01:24:46.025Z,6.25
2022-12-23T01:27:13.219Z,6.26
2022-12-23T01:29:40.381Z,6.32
2022-12-23T01:32:08.155Z,6.27
2022-12-23T01:34:37.432Z,6.24
2022-12-23T01:37:04.985Z,6.19
2022-12-23T01:39:32.221Z,6.20
2022-12-23T01:42:17.878Z,6.14
2022-12-23T01:44:52.415Z,6.16
2022-12-23T01:47:41.867Z,6.08
2022-12-23T01:50:16.845Z,6.22
2022-12-23T01:52:52.530Z,6.14
2022-12-23T01:55:22.461Z,6.12
2022-12-23T01:57:50.199Z,6.21
2022-12-23T02:00:36.444Z,6.23
2022-12-23T02:03:22.593Z,6.27
2022-12-23T02:05:50.194Z,6.25
2022-12-23T02:08:36.533Z,6.18
2022-12-23T02:11:22.436Z,6.13
2022-12-23T02:14:27.994Z,6.05
2022-12-23T02:17:13.047Z,6.14
2022-12-23T02:20:20.563Z,6.10
2022-12-23T02:23:09.000Z,6.19
2022-12-23T02:26:13.750Z,6.21
2022-12-23T02:29:19.957Z,6.22
2022-12-23T02:32:01.329Z,6.23
2022-12-23T02:34:55.692Z,6.25
2022-12-23T02:37:45.484Z,6.21
2022-12-23T02:40:37.359Z,6.27
2022-12-23T02:43:11.711Z,6.22
2022-12-23T02:45:54.188Z,6.18
2022-12-23T02:48:45.917Z,6.30
2022-12-23T02:51:14.942Z,6.39
2022-12-23T02:53:49.871Z,6.35
2022-12-23T02:56:19.953Z,6.33
2022-12-23T02:58:53.260Z,6.38
2022-12-23T03:01:21.464Z,6.48
2022-12-23T03:03:50.344Z,6.50
2022-12-23T03:06:43.749Z,6.38
2022-12-23T03:09:20.850Z,6.36
2022-12-23T03:11:53.191Z,6.39
2022-12-23T03:14:46.888Z,6.44
2022-12-23T03:17:21.032Z,6.48
2022-12-23T03:20:18.857Z,6.36
2022-12-23T03:22:49.201Z,6.40
2022-12-23T03:25:23.902Z,6.25
2022-12-23T03:28:01.494Z,6.39
2022-12-23T03:30:30.501Z,6.50
2022-12-23T03:33:09.830Z,6.54
2022-12-23T03:35:39.070Z,6.55
2022-12-23T03:38:08.131Z,6.45
2022-12-23T03:40:58.751Z,6.50
2022-12-23T03:43:29.251Z,6.56
2022-12-23T03:46:03.797Z,6.51
2022-12-23T03:48:37.817Z,6.45
2022-12-23T03:51:14.415Z,6.50
2022-12-23T03:53:51.928Z,6.45
2022-12-23T03:56:31.357Z,6.52
2022-12-23T03:59:11.997Z,6.53
2022-12-23T04:01:48.268Z,6.54
2022-12-23T04:04:27.654Z,6.51
2022-12-23T04:06:57.759Z,6.46
2022-12-23T04:09:27.360Z,6.33
2022-12-23T04:11:57.868Z,6.34
2022-12-23T04:14:25.592Z,6.30
2022-12-23T04:16:55.787Z,6.36
2022-12-23T04:19:23.043Z,6.35
2022-12-23T04:21:50.205Z,6.46
2022-12-23T04:24:17.475Z,6.54
2022-12-23T04:26:44.813Z,6.46
2022-12-23T04:29:12.192Z,6.47
2022-12-23T04:31:39.374Z,6.52
2022-12-23T04:34:06.755Z,6.49
2022-12-23T04:36:33.977Z,6.55
2022-12-23T04:39:01.183Z,6.53
2022-12-23T04:41:28.344Z,6.59
2022-12-23T04:43:55.577Z,6.66
2022-12-23T04:46:22.815Z,6.70
2022-12-23T04:48:50.149Z,6.76
2022-12-23T04:51:17.341Z,6.77
2022-12-23T04:53:44.794Z,6.67
2022-12-23T04:56:11.958Z,6.74
2022-12-23T04:58:39.303Z,6.80
2022-12-23T05:01:08.924Z,6.84
2022-12-23T05:03:37.014Z,6.86
2022-12-23T05:06:04.841Z,6.88
2022-12-23T05:08:32.190Z,6.90
2022-12-23T05:10:59.486Z,6.95
2022-12-23T05:13:26.731Z,7.00
2022-12-23T05:15:54.810Z,7.02
2022-12-23T05:18:22.594Z,7.09
2022-12-23T05:20:50.557Z,7.12
2022-12-23T05:23:18.080Z,7.13
2022-12-23T05:25:52.166Z,7.13
2022-12-23T05:28:19.749Z,7.24
2022-12-23T05:30:47.043Z,7.25
2022-12-23T05:33:14.881Z,7.29
2022-12-23T05:35:42.183Z,7.26
2022-12-23T05:38:09.400Z,7.26
2022-12-23T05:40:36.605Z,7.30
2022-12-23T05:43:04.094Z,7.31
2022-12-23T05:45:31.690Z,7.23
2022-12-23T05:47:58.942Z,7.19
2022-12-23T05:50:26.202Z,7.28
2022-12-23T05:52:55.873Z,7.36
2022-12-23T05:55:23.484Z,7.41
2022-12-23T05:57:51.159Z,7.35
2022-12-23T06:00:19.867Z,7.37
2022-12-23T06:02:53.607Z,7.40
2022-12-23T06:05:21.673Z,7.46
2022-12-23T06:07:48.919Z,7.45
2022-12-23T06:10:16.170Z,7.45
2022-12-23T06:12:43.608Z,7.48
2022-12-23T06:15:11.472Z,7.43
2022-12-23T06:17:38.830Z,7.48
2022-12-23T06:20:06.656Z,7.58
2022-12-23T06:22:34.115Z,7.60
2022-12-23T06:25:01.373Z,7.64
2022-12-23T06:27:28.550Z,7.64
2022-12-23T06:29:56.214Z,7.62
2022-12-23T06:32:23.400Z,7.68
2022-12-23T06:34:53.456Z,7.68
2022-12-23T06:37:21.616Z,7.64
2022-12-23T06:39:48.801Z,7.73
2022-12-23T06:42:15.981Z,7.79
2022-12-23T06:44:43.225Z,7.77
2022-12-23T06:47:12.865Z,7.82
2022-12-23T06:49:40.240Z,7.83
2022-12-23T06:52:07.421Z,7.86
2022-12-23T06:54:34.695Z,7.82
2022-12-23T06:57:01.900Z,7.82
2022-12-23T06:59:30.028Z,7.75
2022-12-23T07:01:57.346Z,7.77
2022-12-23T07:04:24.756Z,7.77
2022-12-23T07:06:51.944Z,7.82
2022-12-23T07:09:19.177Z,7.84
2022-12-23T07:11:50.250Z,7.80
2022-12-23T07:14:17.620Z,7.83
2022-12-23T07:16:45.334Z,7.78
2022-12-23T07:19:12.767Z,7.89
2022-12-23T07:21:40.057Z,7.96
2022-12-23T07:24:12.929Z,7.92
2022-12-23T07:26:44.088Z,7.95
2022-12-23T07:29:12.048Z,7.93
2022-12-23T07:31:41.040Z,7.88
2022-12-23T07:34:09.080Z,7.90
2022-12-23T07:36:36.435Z,7.92
2022-12-23T07:39:04.331Z,7.90
2022-12-23T07:41:31.576Z,7.90
2022-12-23T07:43:58.820Z,7.99
2022-12-23T07:46:26.110Z,7.98
2022-12-23T07:48:53.393Z,8.03
2022-12-23T07:51:20.764Z,7.99
2022-12-23T07:53:51.526Z,7.88
2022-12-23T07:56:19.922Z,7.90
2022-12-23T07:58:51.818Z,7.97
2022-12-23T08:01:19.893Z,7.98
2022-12-23T08:03:48.069Z,8.00
2022-12-23T08:06:16.544Z,8.00
2022-12-23T08:08:46.101Z,8.03
2022-12-23T08:11:14.369Z,8.05
2022-12-23T08:13:43.095Z,7.91
2022-12-23T08:16:10.823Z,7.96
2022-12-23T08:18:39.981Z,7.95
2022-12-23T08:21:19.367Z,7.91
2022-12-23T08:23:47.355Z,8.01
2022-12-23T08:26:20.092Z,7.98
2022-12-23T08:28:48.064Z,7.96
2022-12-23T08:31:24.828Z,8.05
2022-12-23T08:33:54.999Z,8.13
2022-12-23T08:36:30.748Z,8.04
2022-12-23T08:39:01.423Z,8.09
2022-12-23T08:41:31.396Z,8.07
2022-12-23T08:43:59.208Z,8.10
2022-12-23T08:46:26.641Z,8.08
2022-12-23T08:48:54.377Z,8.12
2022-12-23T08:51:23.331Z,8.11
2022-12-23T08:53:54.802Z,8.16
2022-12-23T08:56:27.027Z,8.12
2022-12-23T08:58:55.318Z,8.11
2022-12-23T09:01:24.768Z,8.03
2022-12-23T09:03:52.871Z,8.09
2022-12-23T09:06:29.659Z,8.13
2022-12-23T09:08:57.975Z,8.09
2022-12-23T09:11:26.774Z,8.12
2022-12-23T09:13:54.731Z,8.10
2022-12-23T09:16:22.101Z,8.02
2022-12-23T09:18:49.364Z,8.00
2022-12-23T09:21:21.591Z,7.99
2022-12-23T09:23:49.224Z,8.06
2022-12-23T09:26:25.600Z,8.08
2022-12-23T09:28:53.217Z,8.11
2022-12-23T09:31:21.575Z,8.10
2022-12-23T09:33:50.407Z,8.09
2022-12-23T09:36:18.018Z,8.06
2022-12-23T09:38:45.279Z,8.14
2022-12-23T09:41:26.413Z,8.14
2022-12-23T09:44:09.740Z,8.16
2022-12-23T09:46:42.151Z,8.10
2022-12-23T09:49:15.534Z,8.08
2022-12-23T09:51:42.781Z,8.00
2022-12-23T09:54:29.310Z,8.10
2022-12-23T09:57:20.534Z,8.06
2022-12-23T10:00:12.346Z,8.14
2022-12-23T10:03:01.508Z,7.95
2022-12-23T10:06:06.790Z,7.86
2022-12-23T10:08:36.705Z,7.84
2022-12-23T10:11:19.233Z,7.89
2022-12-23T10:13:56.820Z,7.82
2022-12-23T10:16:28.337Z,7.89
2022-12-23T10:19:25.657Z,7.88
2022-12-23T10:22:06.283Z,8.02
2022-12-23T10:24:47.231Z,8.06
2022-12-23T10:27:40.413Z,8.11
2022-12-23T10:30:34.123Z,8.19
2022-12-23T10:33:24.438Z,8.32
2022-12-23T10:35:51.542Z,8.34
2022-12-23T10:38:21.721Z,8.27
2022-12-23T10:40:51.232Z,8.35
2022-12-23T10:43:39.751Z,8.45
2022-12-23T10:46:35.149Z,8.56
2022-12-23T10:49:17.433Z,8.63
2022-12-23T10:51:49.421Z,8.77
2022-12-23T10:54:35.628Z,8.78
2022-12-23T10:57:03.955Z,8.79
2022-12-23T10:59:35.511Z,8.78
2022-12-23T11:02:05.658Z,8.70
2022-12-23T11:04:36.433Z,8.74
2022-12-23T11:07:42.059Z,8.75
2022-12-23T11:10:23.424Z,8.78
2022-12-23T11:12:52.841Z,8.70
2022-12-23T11:15:26.503Z,8.67
2022-12-23T11:18:12.144Z,8.60
2022-12-23T11:20:41.207Z,8.60
2022-12-23T11:23:25.493Z,8.61
2022-12-23T11:26:11.570Z,8.62
2022-12-23T11:28:46.491Z,8.52
2022-12-23T11:31:14.678Z,8.39
2022-12-23T11:33:57.635Z,8.45
2022-12-23T11:36:27.629Z,8.54
2022-12-23T11:39:13.171Z,8.55
2022-12-23T11:41:45.725Z,8.56
2022-12-23T11:44:22.394Z,8.53
2022-12-23T11:46:50.112Z,8.49
2022-12-23T11:49:25.797Z,8.52
2022-12-23T11:52:02.250Z,8.43
2022-12-23T11:54:37.776Z,8.38
2022-12-23T11:57:08.349Z,8.31
2022-12-23T11:59:49.807Z,8.32
2022-12-23T12:02:34.034Z,8.25
2022-12-23T12:05:17.217Z,8.37
2022-12-23T12:07:52.921Z,8.26
2022-12-23T12:10:27.832Z,8.30
2022-12-23T12:13:08.484Z,8.31
2022-12-23T12:15:58.384Z,8.29
2022-12-23T12:18:27.069Z,8.30
2022-12-23T12:21:00.096Z,8.25
2022-12-23T12:23:35.712Z,8.44
2022-12-23T12:26:08.227Z,8.53
2022-12-23T12:28:40.349Z,8.59
2022-12-23T12:31:41.705Z,8.63
2022-12-23T12:34:33.723Z,8.70
2022-12-23T12:37:26.744Z,8.52
2022-12-23T12:39:58.544Z,8.44
2022-12-23T12:42:39.037Z,8.54
2022-12-23T12:45:21.132Z,8.56
2022-12-23T12:47:56.008Z,8.53
2022-12-23T12:50:33.284Z,8.50
2022-12-23T12:53:08.270Z,8.45
2022-12-23T12:55:42.391Z,8.42
2022-12-23T12:58:19.028Z,8.42
2022-12-23T13:01:12.451Z,8.40
2022-12-23T13:04:04.706Z,8.44
2022-12-23T13:07:05.823Z,8.45
2022-12-23T13:10:00.054Z,8.44
2022-12-23T13:12:44.013Z,8.45
2022-12-23T13:15:22.017Z,8.47
2022-12-23T13:18:03.653Z,8.48
2022-12-23T13:20:41.966Z,8.43
2022-12-23T13:23:42.348Z,8.47
2022-12-23T13:26:37.886Z,8.45
2022-12-23T13:29:39.941Z,8.47
2022-12-23T13:32:31.940Z,8.46
2022-12-23T13:35:35.823Z,8.48
2022-12-23T13:38:49.508Z,8.42
2022-12-23T13:41:26.103Z,8.51
2022-12-23T13:44:05.716Z,8.52
2022-12-23T13:46:41.203Z,8.46
2022-12-23T13:49:30.815Z,8.33
2022-12-23T13:52:24.796Z,8.35
2022-12-23T13:55:13.806Z,8.31
2022-12-23T13:57:40.924Z,8.39
2022-12-23T14:00:26.418Z,8.36
2022-12-23T14:03:00.141Z,8.38
2022-12-23T14:05:45.362Z,8.28
2022-12-23T14:08:30.589Z,8.16
2022-12-23T14:11:01.552Z,8.17
2022-12-23T14:13:52.506Z,8.16
2022-12-23T14:16:42.024Z,8.13
2022-12-23T14:19:39.531Z,8.08
2022-12-23T14:22:31.734Z,8.05
2022-12-23T14:25:37.165Z,7.93
2022-12-23T14:28:27.312Z,7.90
2022-12-23T14:30:55.835Z,7.96
2022-12-23T14:33:28.292Z,7.98
2022-12-23T14:35:58.579Z,8.00
2022-12-23T14:38:33.008Z,8.05
2022-12-23T14:41:23.733Z,8.08
2022-12-23T14:43:56.182Z,8.09
2022-12-23T14:46:35.624Z,8.14
2022-12-23T14:49:38.443Z,8.17
2022-12-23T14:52:42.614Z,8.15
2022-12-23T14:55:40.450Z,8.14
2022-12-23T14:58:27.290Z,8.17
2022-12-23T15:01:07.318Z,8.14
2022-12-23T15:03:40.417Z,8.12
2022-12-23T15:06:07.832Z,8.14
2022-12-23T15:08:39.399Z,8.17
2022-12-23T15:11:09.459Z,8.19
2022-12-23T15:13:37.746Z,8.15
2022-12-23T15:16:06.150Z,8.17
2022-12-23T15:18:33.394Z,8.12
2022-12-23T15:21:11.093Z,8.15
2022-12-23T15:23:38.287Z,8.12
2022-12-23T15:26:05.643Z,8.15
2022-12-23T15:28:38.163Z,8.15
2022-12-23T15:31:06.234Z,8.11
2022-12-23T15:36:31.384Z,7.99
2022-12-23T15:39:00.454Z,7.91
2022-12-23T15:41:28.202Z,7.80
2022-12-23T15:44:01.554Z,7.73
2022-12-23T15:46:30.658Z,7.67
2022-12-23T15:48:58.042Z,7.61
2022-12-23T15:54:27.964Z,7.54
2022-12-23T16:03:40.524Z,7.58
2022-12-23T16:06:19.764Z,7.59
2022-12-23T16:08:57.971Z,7.61
2022-12-23T16:11:57.452Z,7.59
2022-12-23T16:14:31.731Z,7.59
2022-12-23T16:17:00.719Z,7.46
2022-12-23T16:19:41.398Z,7.41
2022-12-23T16:22:17.978Z,7.33
2022-12-23T16:24:59.148Z,7.46
2022-12-23T16:27:38.990Z,7.54
2022-12-23T16:30:24.667Z,7.58
2022-12-23T16:32:55.097Z,7.56
2022-12-23T16:35:42.773Z,7.64
2022-12-23T16:38:19.664Z,7.66
2022-12-23T16:40:49.247Z,7.67
2022-12-23T16:43:16.633Z,7.63
2022-12-23T16:45:45.219Z,7.53
2022-12-23T16:48:31.354Z,7.56
2022-12-23T16:50:59.188Z,7.53
2022-12-23T16:53:27.948Z,7.50
2022-12-23T16:56:00.660Z,7.47
2022-12-23T16:58:28.594Z,7.47
2022-12-23T17:00:56.533Z,7.51
2022-12-23T17:03:23.849Z,7.48
2022-12-23T17:05:52.306Z,7.43
2022-12-23T17:08:19.990Z,7.35
2022-12-23T17:10:47.722Z,7.42
2022-12-23T17:13:17.708Z,7.42
2022-12-23T17:15:45.471Z,7.38
2022-12-23T17:18:15.018Z,7.23
2022-12-23T17:20:43.489Z,6.99
2022-12-23T17:23:27.501Z,7.04
2022-12-23T17:25:55.583Z,7.12
2022-12-23T17:28:23.879Z,7.15
2022-12-23T17:30:54.623Z,7.12
2022-12-23T17:33:22.541Z,7.12
2022-12-23T17:35:49.977Z,7.15
2022-12-23T17:38:17.572Z,7.17
2022-12-23T17:40:46.248Z,7.16
2022-12-23T17:43:15.158Z,7.15
2022-12-23T17:45:42.901Z,7.11
2022-12-23T17:48:20.592Z,6.99
2022-12-23T17:50:48.867Z,6.87
2022-12-23T17:53:20.187Z,6.75
2022-12-23T17:55:47.669Z,6.71
2022-12-23T17:58:15.754Z,6.67
2022-12-23T18:00:43.205Z,6.54
2022-12-23T18:03:22.718Z,6.71
2022-12-23T18:05:54.227Z,6.79
2022-12-23T18:08:21.821Z,6.88
2022-12-23T18:10:49.213Z,6.93
2022-12-23T18:13:19.240Z,6.97
2022-12-23T18:15:46.749Z,6.96
2022-12-23T18:18:17.869Z,7.02
2022-12-23T18:20:52.282Z,7.08
2022-12-23T18:23:23.647Z,7.11
2022-12-23T18:25:50.872Z,7.14
2022-12-23T18:28:18.268Z,7.18
2022-12-23T18:30:45.541Z,7.17
2022-12-23T18:33:13.576Z,7.19
2022-12-23T18:35:46.392Z,7.18
2022-12-23T18:38:21.183Z,7.17
2022-12-23T18:40:52.012Z,7.15
2022-12-23T18:43:23.853Z,7.12
2022-12-23T18:45:55.421Z,7.08
2022-12-23T18:48:22.625Z,7.05
2022-12-23T18:50:51.167Z,7.04
2022-12-23T18:53:24.635Z,7.03
2022-12-23T18:55:54.059Z,6.74
2022-12-23T18:58:21.607Z,6.83
2022-12-23T19:00:49.848Z,6.79
2022-12-23T19:03:28.520Z,6.79
2022-12-23T19:05:56.559Z,6.82
2022-12-23T19:08:26.965Z,6.70
2022-12-23T19:10:55.559Z,6.70
2022-12-23T19:13:23.818Z,6.72
2022-12-23T19:15:51.896Z,6.67
2022-12-23T19:18:20.830Z,6.66
2022-12-23T19:20:48.714Z,6.73
2022-12-23T19:23:16.369Z,6.70
2022-12-23T19:25:52.603Z,6.74
2022-12-23T19:28:23.548Z,6.71
2022-12-23T19:30:50.992Z,6.78
2022-12-23T19:33:18.301Z,6.78
2022-12-23T19:35:45.476Z,6.65
2022-12-23T19:38:12.814Z,6.67
2022-12-23T19:40:40.419Z,6.74
2022-12-23T19:43:08.297Z,6.69
2022-12-23T19:45:36.497Z,6.65
2022-12-23T19:48:03.828Z,6.58
2022-12-23T19:50:31.035Z,6.49
2022-12-23T19:52:58.353Z,6.33
2022-12-23T19:55:25.593Z,6.38
2022-12-23T19:57:54.346Z,6.39
2022-12-23T20:00:21.492Z,6.33
2022-12-23T20:02:52.441Z,6.33
2022-12-23T20:05:24.034Z,6.33
2022-12-23T20:07:51.383Z,6.29
2022-12-23T20:10:18.685Z,6.23
2022-12-23T20:12:45.942Z,6.27
2022-12-23T20:15:13.217Z,6.28
2022-12-23T20:17:40.477Z,6.17
2022-12-23T20:20:11.315Z,6.13
2022-12-23T20:22:38.674Z,6.14
2022-12-23T20:25:06.262Z,6.14
2022-12-23T20:27:33.818Z,6.08
2022-12-23T20:30:01.055Z,6.06
2022-12-23T20:32:28.403Z,6.18
2022-12-23T20:34:55.606Z,6.19
2022-12-23T20:37:24.396Z,6.05
2022-12-23T20:39:52.070Z,6.00
2022-12-23T20:42:19.443Z,5.95
2022-12-23T20:44:46.626Z,5.91
2022-12-23T20:47:13.852Z,6.00
2022-12-23T20:49:41.358Z,6.00
2022-12-23T20:52:10.925Z,6.02
2022-12-23T20:54:38.151Z,6.02
2022-12-23T20:57:05.433Z,6.05
2022-12-23T20:59:33.273Z,6.03
2022-12-23T21:02:00.568Z,6.12
2022-12-23T21:04:28.157Z,6.21
2022-12-23T21:06:55.401Z,6.22
2022-12-23T21:09:22.711Z,6.16
2022-12-23T21:11:50.210Z,6.25
2022-12-23T21:14:17.479Z,6.21
2022-12-23T21:16:45.052Z,6.26
2022-12-23T21:19:23.329Z,6.22
2022-12-23T21:21:51.458Z,6.27
2022-12-23T21:24:20.747Z,6.34
2022-12-23T21:26:56.315Z,6.32
2022-12-23T21:29:26.279Z,6.30
2022-12-23T21:31:54.839Z,6.24
2022-12-23T21:34:22.347Z,6.28
2022-12-23T21:36:49.801Z,6.35
2022-12-23T21:39:17.220Z,6.44
2022-12-23T21:41:46.148Z,6.43
2022-12-23T21:44:15.069Z,6.32
2022-12-23T21:46:42.582Z,6.29
2022-12-23T21:49:10.313Z,6.27
2022-12-23T21:51:40.750Z,6.32
2022-12-23T21:54:09.580Z,6.23
2022-12-23T21:56:43.819Z,6.12
2022-12-23T21:59:15.464Z,6.20
2022-12-23T22:01:43.724Z,6.12
2022-12-23T22:04:10.999Z,6.15
2022-12-23T22:06:43.362Z,6.01
2022-12-23T22:09:13.270Z,6.06
2022-12-23T22:11:40.654Z,6.14
2022-12-23T22:14:10.701Z,6.12
2022-12-23T22:16:38.252Z,6.13
2022-12-23T22:19:06.692Z,6.13
2022-12-23T22:21:34.904Z,6.18
2022-12-23T22:24:02.263Z,6.22
2022-12-23T22:26:31.621Z,6.18
2022-12-23T22:28:59.539Z,6.28
2022-12-23T22:31:47.291Z,6.26
2022-12-23T22:34:17.422Z,6.21
2022-12-23T22:36:44.849Z,6.11
2022-12-23T22:39:20.170Z,6.10
2022-12-23T22:41:49.472Z,6.19
2022-12-23T22:44:16.691Z,6.02
2022-12-23T22:46:46.201Z,6.03
2022-12-23T22:49:14.457Z,5.98
2022-12-23T22:51:42.200Z,6.00
2022-12-23T22:54:10.125Z,5.99
2022-12-23T22:56:38.367Z,6.03
2022-12-23T22:59:05.647Z,6.10
2022-12-23T23:01:35.505Z,5.98
2022-12-23T23:04:05.886Z,5.96
2022-12-23T23:06:37.646Z,5.85
2022-12-23T23:09:07.333Z,5.98
2022-12-23T23:11:35.300Z,6.01
2022-12-23T23:14:02.804Z,5.89
2022-12-23T23:16:30.257Z,6.01
2022-12-23T23:18:58.967Z,5.98
2022-12-23T23:21:26.626Z,6.03
2022-12-23T23:23:53.927Z,6.03
2022-12-23T23:26:21.611Z,6.01
2022-12-23T23:28:49.179Z,5.96
2022-12-23T23:31:41.288Z,6.03
2022-12-23T23:34:03.651Z,6.00
2022-12-23T23:36:30.929Z,5.99
2022-12-23T23:38:58.175Z,5.99
2022-12-23T23:41:28.023Z,5.98
2022-12-23T23:43:55.825Z,6.01
2022-12-23T23:46:23.388Z,5.90
2022-12-23T23:48:50.670Z,5.99
2022-12-23T23:51:17.880Z,5.96
2022-12-23T23:53:45.098Z,6.00
2022-12-23T23:56:12.280Z,5.92
2022-12-23T23:58:39.989Z,5.94
